createdAt,value
2022-12-05T00:00:51.434Z,1.80
2022-12-05T00:03:18.920Z,1.88
2022-12-05T00:05:45.666Z,1.80
2022-12-05T00:08:12.824Z,1.67
2022-12-05T00:10:40.379Z,1.98
2022-12-05T00:13:07.499Z,2.00
2022-12-05T00:15:39.465Z,1.90
2022-12-05T00:18:06.968Z,1.70
2022-12-05T00:20:33.975Z,1.77
2022-12-05T00:23:00.887Z,1.80
2022-12-05T00:25:28.232Z,1.70
2022-12-05T00:27:55.183Z,1.60
2022-12-05T00:30:22.027Z,1.88
2022-12-05T00:32:48.942Z,2.00
2022-12-05T00:35:15.872Z,1.90
2022-12-05T00:37:42.582Z,1.70
2022-12-05T00:40:09.894Z,1.95
2022-12-05T00:42:36.715Z,1.70
2022-12-05T00:45:03.790Z,2.03
2022-12-05T00:47:30.950Z,1.90
2022-12-05T00:49:57.971Z,1.70
2022-12-05T00:52:25.040Z,1.80
2022-12-05T00:54:51.820Z,1.77
2022-12-05T00:57:18.587Z,1.80
2022-12-05T00:59:45.616Z,1.75
2022-12-05T01:02:12.487Z,1.90
2022-12-05T01:04:39.348Z,1.60
2022-12-05T01:07:06.120Z,1.70
2022-12-05T01:09:32.956Z,1.77
2022-12-05T01:11:59.772Z,1.77
2022-12-05T01:14:27.119Z,1.77
2022-12-05T01:16:56.132Z,1.73
2022-12-05T01:19:27.980Z,1.60
2022-12-05T01:21:55.341Z,1.92
2022-12-05T01:24:23.473Z,1.70
2022-12-05T01:26:50.536Z,1.90
2022-12-05T01:29:20.159Z,1.58
2022-12-05T01:31:47.313Z,1.65
2022-12-05T01:34:16.020Z,1.70
2022-12-05T01:36:43.430Z,1.70
2022-12-05T01:39:11.359Z,1.50
2022-12-05T01:41:41.635Z,1.70
2022-12-05T01:44:28.316Z,1.73
2022-12-05T01:46:56.243Z,1.52
2022-12-05T01:49:35.661Z,1.42
2022-12-05T01:52:07.577Z,1.60
2022-12-05T01:54:36.361Z,1.73
2022-12-05T01:57:06.456Z,1.58
2022-12-05T01:59:36.266Z,1.60
2022-12-05T02:02:03.635Z,1.73
2022-12-05T02:04:30.927Z,1.50
2022-12-05T02:06:57.610Z,1.50
2022-12-05T02:09:24.312Z,1.40
2022-12-05T02:11:57.080Z,1.48
2022-12-05T02:14:46.760Z,1.42
2022-12-05T02:17:23.871Z,1.63
2022-12-05T02:20:18.647Z,1.40
2022-12-05T02:23:00.856Z,1.60
2022-12-05T02:26:01.856Z,1.58
2022-12-05T02:28:44.491Z,1.60
2022-12-05T02:31:20.891Z,1.40
2022-12-05T02:33:57.622Z,1.48
2022-12-05T02:36:46.799Z,1.63
2022-12-05T02:39:22.776Z,1.50
2022-12-05T02:42:09.164Z,1.55
2022-12-05T02:44:53.270Z,1.67
2022-12-05T02:47:25.436Z,1.73
2022-12-05T02:49:53.957Z,1.60
2022-12-05T02:52:22.582Z,1.60
2022-12-05T02:54:51.317Z,1.67
2022-12-05T02:57:20.450Z,1.90
2022-12-05T02:59:47.265Z,1.42
2022-12-05T03:02:27.344Z,1.60
2022-12-05T03:05:04.382Z,1.40
2022-12-05T03:07:31.619Z,1.70
2022-12-05T03:10:02.741Z,1.45
2022-12-05T03:12:33.783Z,1.80
2022-12-05T03:15:06.777Z,1.70
2022-12-05T03:17:44.657Z,1.77
2022-12-05T03:20:23.151Z,1.80
2022-12-05T03:23:12.038Z,2.00
2022-12-05T03:25:49.573Z,1.70
2022-12-05T03:28:25.396Z,1.50
2022-12-05T03:30:55.576Z,1.70
2022-12-05T03:33:28.533Z,1.60
2022-12-05T03:36:04.505Z,1.58
2022-12-05T03:38:34.434Z,1.50
2022-12-05T03:41:33.489Z,1.50
2022-12-05T03:44:24.461Z,1.40
2022-12-05T03:46:57.663Z,1.60
2022-12-05T03:49:47.224Z,1.40
2022-12-05T03:53:10.978Z,1.50
2022-12-05T03:55:29.845Z,1.60
2022-12-05T04:00:37.754Z,1.40
2022-12-05T04:03:11.890Z,1.60
2022-12-05T04:05:49.793Z,1.80
2022-12-05T04:08:43.991Z,1.60
2022-12-05T04:11:17.243Z,1.63
2022-12-05T04:13:49.086Z,1.60
2022-12-05T04:16:37.850Z,1.85
2022-12-05T04:19:23.958Z,1.52
2022-12-05T04:21:54.072Z,1.80
2022-12-05T04:24:49.204Z,1.60
2022-12-05T04:27:46.129Z,2.05
2022-12-05T04:30:19.624Z,1.80
2022-12-05T04:33:02.549Z,1.67
2022-12-05T04:35:35.410Z,2.13
2022-12-05T04:38:13.320Z,1.63
2022-12-05T04:40:49.485Z,2.08
2022-12-05T04:43:18.804Z,2.05
2022-12-05T04:45:46.015Z,1.90
2022-12-05T04:48:17.221Z,1.90
2022-12-05T04:50:47.947Z,1.77
2022-12-05T04:53:16.759Z,2.00
2022-12-05T04:55:49.580Z,1.80
2022-12-05T04:58:20.550Z,2.10
2022-12-05T05:00:54.756Z,2.10
2022-12-05T05:03:28.111Z,2.03
2022-12-05T05:05:56.750Z,2.00
2022-12-05T05:08:27.629Z,1.70
2022-12-05T05:11:16.383Z,2.00
2022-12-05T05:13:43.140Z,1.80
2022-12-05T05:16:20.581Z,1.85
2022-12-05T05:18:49.537Z,2.00
2022-12-05T05:21:19.922Z,2.10
2022-12-05T05:23:47.011Z,2.20
2022-12-05T05:26:13.768Z,1.90
2022-12-05T05:28:41.047Z,2.03
2022-12-05T05:31:08.021Z,2.17
2022-12-05T05:33:35.972Z,2.45
2022-12-05T05:36:07.675Z,2.00
2022-12-05T05:38:42.471Z,2.20
2022-12-05T05:41:17.612Z,2.15
2022-12-05T05:43:45.356Z,2.10
2022-12-05T05:46:13.608Z,2.17
2022-12-05T05:48:42.751Z,2.60
2022-12-05T05:51:11.440Z,2.80
2022-12-05T05:53:38.534Z,2.65
2022-12-05T05:56:07.795Z,2.47
2022-12-05T05:58:35.073Z,2.38
2022-12-05T06:01:10.026Z,2.58
2022-12-05T06:03:37.814Z,2.70
2022-12-05T06:06:07.944Z,2.50
2022-12-05T06:08:37.113Z,2.10
2022-12-05T06:11:12.058Z,2.20
2022-12-05T06:13:39.326Z,2.53
2022-12-05T06:16:10.991Z,2.40
2022-12-05T06:18:38.110Z,2.33
2022-12-05T06:21:14.593Z,2.20
2022-12-05T06:23:42.886Z,2.25
2022-12-05T06:26:15.553Z,2.20
2022-12-05T06:28:43.101Z,2.10
2022-12-05T06:31:15.803Z,2.25
2022-12-05T06:33:43.161Z,2.40
2022-12-05T06:36:15.072Z,2.25
2022-12-05T06:38:42.887Z,2.50
2022-12-05T06:41:13.924Z,2.03
2022-12-05T06:43:41.240Z,1.92
2022-12-05T06:46:09.783Z,2.30
2022-12-05T06:48:36.758Z,2.50
2022-12-05T06:51:04.629Z,2.08
2022-12-05T06:53:31.435Z,2.20
2022-12-05T06:56:03.442Z,2.30
2022-12-05T06:58:31.122Z,2.22
2022-12-05T07:01:16.600Z,2.35
2022-12-05T07:03:44.416Z,2.50
2022-12-05T07:06:11.256Z,2.60
2022-12-05T07:08:38.130Z,2.20
2022-12-05T07:11:08.418Z,2.38
2022-12-05T07:13:35.060Z,2.42
2022-12-05T07:16:02.389Z,2.60
2022-12-05T07:18:29.269Z,2.63
2022-12-05T07:21:14.817Z,2.40
2022-12-05T07:23:45.304Z,2.38
2022-12-05T07:26:18.209Z,2.58
2022-12-05T07:28:45.697Z,2.38
2022-12-05T07:31:18.871Z,2.42
2022-12-05T07:33:46.316Z,2.50
2022-12-05T07:36:19.015Z,2.50
2022-12-05T07:38:46.127Z,2.30
2022-12-05T07:41:22.266Z,2.33
2022-12-05T07:43:51.075Z,2.45
2022-12-05T07:46:18.307Z,2.50
2022-12-05T07:48:45.600Z,2.22
2022-12-05T07:51:12.352Z,2.33
2022-12-05T07:53:41.574Z,2.70
2022-12-05T07:56:09.337Z,2.47
2022-12-05T07:58:36.844Z,2.58
2022-12-05T08:01:18.041Z,2.60
2022-12-05T08:03:45.881Z,2.85
2022-12-05T08:06:39.001Z,2.45
2022-12-05T08:09:10.884Z,2.30
2022-12-05T08:11:38.226Z,2.85
2022-12-05T08:14:06.586Z,2.53
2022-12-05T08:16:34.125Z,2.50
2022-12-05T08:19:03.178Z,2.22
2022-12-05T08:21:30.262Z,2.15
2022-12-05T08:23:57.997Z,2.50
2022-12-05T08:26:27.918Z,2.25
2022-12-05T08:29:00.479Z,2.30
2022-12-05T08:31:29.454Z,2.22
2022-12-05T08:33:59.319Z,2.25
2022-12-05T08:36:29.093Z,2.30
2022-12-05T08:39:03.237Z,2.50
2022-12-05T08:41:31.077Z,2.00
2022-12-05T08:44:01.422Z,2.20
2022-12-05T08:46:30.545Z,2.40
2022-12-05T08:48:57.367Z,2.30
2022-12-05T08:51:24.090Z,2.30
2022-12-05T08:53:56.575Z,2.42
2022-12-05T08:56:27.207Z,2.17
2022-12-05T08:58:59.821Z,2.20
2022-12-05T09:01:32.674Z,2.53
2022-12-05T09:04:00.705Z,2.20
2022-12-05T09:06:28.134Z,2.30
2022-12-05T09:08:57.972Z,2.13
2022-12-05T09:11:27.804Z,2.40
2022-12-05T09:13:59.209Z,2.20
2022-12-05T09:16:37.041Z,2.15
2022-12-05T09:19:20.779Z,2.20
2022-12-05T09:21:47.609Z,2.10
2022-12-05T09:24:14.546Z,2.67
2022-12-05T09:26:41.894Z,2.60
2022-12-05T09:29:16.180Z,2.50
2022-12-05T09:31:45.751Z,2.50
2022-12-05T09:34:14.183Z,2.30
2022-12-05T09:36:41.798Z,2.33
2022-12-05T09:39:10.303Z,2.47
2022-12-05T09:42:04.974Z,2.53
2022-12-05T09:44:53.089Z,2.60
2022-12-05T09:47:19.829Z,2.45
2022-12-05T09:49:54.876Z,2.38
2022-12-05T09:52:29.498Z,2.45
2022-12-05T09:55:00.707Z,2.55
2022-12-05T09:57:40.534Z,2.60
2022-12-05T10:00:10.002Z,2.60
2022-12-05T10:05:23.035Z,2.28
2022-12-05T10:08:25.393Z,3.60
2022-12-05T10:11:02.066Z,2.60
2022-12-05T10:13:47.630Z,2.40
2022-12-05T10:16:21.588Z,2.60
2022-12-05T10:19:00.037Z,2.53
2022-12-05T10:21:36.577Z,2.60
2022-12-05T10:24:15.422Z,2.60
2022-12-05T10:26:46.316Z,2.70
2022-12-05T10:29:21.801Z,3.00
2022-12-05T10:31:55.461Z,3.00
2022-12-05T10:34:41.075Z,3.03
2022-12-05T10:37:18.315Z,2.80
2022-12-05T10:39:47.059Z,2.72
2022-12-05T10:42:17.609Z,2.88
2022-12-05T10:44:45.117Z,2.80
2022-12-05T10:47:12.611Z,2.70
2022-12-05T10:49:40.430Z,2.85
2022-12-05T10:52:08.695Z,2.80
2022-12-05T10:54:45.073Z,2.72
2022-12-05T10:57:41.442Z,2.63
2022-12-05T11:00:17.773Z,2.60
2022-12-05T11:02:50.975Z,2.78
2022-12-05T11:05:28.719Z,2.60
2022-12-05T11:07:58.347Z,2.55
2022-12-05T11:10:35.314Z,2.50
2022-12-05T11:13:13.883Z,2.75
2022-12-05T11:15:49.377Z,2.70
2022-12-05T11:18:41.827Z,2.50
2022-12-05T11:21:14.266Z,2.88
2022-12-05T11:23:41.256Z,2.80
2022-12-05T11:26:39.347Z,2.70
2022-12-05T11:29:30.563Z,2.90
2022-12-05T11:31:57.414Z,2.50
2022-12-05T11:34:30.178Z,2.70
2022-12-05T11:37:05.033Z,2.90
2022-12-05T11:39:32.675Z,2.42
2022-12-05T11:42:34.315Z,2.80
2022-12-05T11:45:18.038Z,2.53
2022-12-05T11:47:47.641Z,2.85
2022-12-05T11:50:37.307Z,3.05
2022-12-05T11:53:30.796Z,2.70
2022-12-05T11:56:21.901Z,2.83
2022-12-05T11:59:34.493Z,2.70
2022-12-05T12:02:49.943Z,2.40
2022-12-05T12:05:44.502Z,2.70
2022-12-05T12:08:30.825Z,2.55
2022-12-05T12:11:30.245Z,2.58
2022-12-05T12:14:01.291Z,2.70
2022-12-05T12:16:46.429Z,2.60
2022-12-05T12:19:38.624Z,2.50
2022-12-05T12:22:18.662Z,2.60
2022-12-05T12:24:52.562Z,2.63
2022-12-05T12:27:49.800Z,2.65
2022-12-05T12:30:24.759Z,2.63
2022-12-05T12:33:08.974Z,2.88
2022-12-05T12:35:55.132Z,2.90
2022-12-05T12:38:28.431Z,2.50
2022-12-05T12:40:58.846Z,2.70
2022-12-05T12:46:35.779Z,2.97
2022-12-05T12:49:43.114Z,2.85
2022-12-05T12:52:20.808Z,2.63
2022-12-05T12:55:04.335Z,2.80
2022-12-05T12:57:54.094Z,2.42
2022-12-05T13:00:48.631Z,2.60
2022-12-05T13:03:25.313Z,3.00
2022-12-05T13:05:59.155Z,2.50
2022-12-05T13:09:00.812Z,2.78
2022-12-05T13:11:34.564Z,2.80
2022-12-05T13:14:04.077Z,3.00
2022-12-05T13:16:45.641Z,2.65
2022-12-05T13:19:46.612Z,3.17
2022-12-05T13:22:18.039Z,2.40
2022-12-05T13:24:45.589Z,2.53
2022-12-05T13:27:21.767Z,2.60
2022-12-05T13:29:59.691Z,2.70
2022-12-05T13:32:33.223Z,2.40
2022-12-05T13:35:49.870Z,2.78
2022-12-05T13:38:58.284Z,2.42
2022-12-05T13:42:02.631Z,2.80
2022-12-05T13:44:37.048Z,2.83
2022-12-05T13:47:10.148Z,2.95
2022-12-05T13:49:48.829Z,3.33
2022-12-05T13:52:23.691Z,3.22
2022-12-05T13:55:01.105Z,3.28
2022-12-05T13:57:40.244Z,3.20
2022-12-05T14:00:10.305Z,3.90
2022-12-05T14:02:47.517Z,3.88
2022-12-05T14:05:14.224Z,3.75
2022-12-05T14:07:42.539Z,2.90
2022-12-05T14:10:13.208Z,3.60
2022-12-05T14:12:45.663Z,3.45
2022-12-05T14:15:34.129Z,3.28
2022-12-05T14:18:06.669Z,2.78
2022-12-05T14:20:48.806Z,2.58
2022-12-05T14:23:51.627Z,2.70
2022-12-05T14:26:36.549Z,2.60
2022-12-05T14:29:29.507Z,2.28
2022-12-05T14:32:23.925Z,2.60
2022-12-05T14:35:11.234Z,2.33
2022-12-05T14:37:44.449Z,2.45
2022-12-05T14:40:23.742Z,2.72
2022-12-05T14:42:57.050Z,2.42
2022-12-05T14:45:40.294Z,2.83
2022-12-05T14:48:13.053Z,2.30
2022-12-05T14:50:44.147Z,2.60
2022-12-05T14:53:26.080Z,2.58
2022-12-05T14:56:16.348Z,2.50
2022-12-05T14:58:50.578Z,2.40
2022-12-05T15:01:22.562Z,2.65
2022-12-05T15:03:58.466Z,2.72
2022-12-05T15:06:26.651Z,2.97
2022-12-05T15:09:14.628Z,2.70
2022-12-05T15:11:44.202Z,2.45
2022-12-05T15:14:17.124Z,2.70
2022-12-05T15:16:46.088Z,2.30
2022-12-05T15:19:19.352Z,3.00
2022-12-05T15:21:52.837Z,2.67
2022-12-05T15:24:20.346Z,3.00
2022-12-05T15:26:49.597Z,2.67
2022-12-05T15:29:20.535Z,2.90
2022-12-05T15:31:53.111Z,2.58
2022-12-05T15:34:31.291Z,2.65
2022-12-05T15:37:13.811Z,2.92
2022-12-05T15:40:01.105Z,2.90
2022-12-05T15:42:42.197Z,2.92
2022-12-05T15:45:12.003Z,2.60
2022-12-05T15:47:39.496Z,2.58
2022-12-05T15:50:12.494Z,3.00
2022-12-05T15:52:39.213Z,2.80
2022-12-05T15:55:14.057Z,2.95
2022-12-05T15:57:46.323Z,3.20
2022-12-05T16:00:18.455Z,3.40
2022-12-05T16:03:00.689Z,3.15
2022-12-05T16:05:52.246Z,3.50
2022-12-05T16:08:20.165Z,3.53
2022-12-05T16:10:47.517Z,3.55
2022-12-05T16:13:15.992Z,3.50
2022-12-05T16:15:52.616Z,3.88
2022-12-05T16:18:30.651Z,3.85
2022-12-05T16:20:57.909Z,3.50
2022-12-05T16:23:30.242Z,4.03
2022-12-05T16:26:16.837Z,3.33
2022-12-05T16:28:57.428Z,3.20
2022-12-05T16:31:24.448Z,3.00
2022-12-05T16:34:05.179Z,3.65
2022-12-05T16:36:35.041Z,3.55
2022-12-05T16:39:07.219Z,3.60
2022-12-05T16:41:40.690Z,3.60
2022-12-05T16:48:22.728Z,3.13
2022-12-05T16:53:21.663Z,3.10
2022-12-05T16:55:49.569Z,3.80
2022-12-05T16:58:29.834Z,3.30
2022-12-05T17:01:02.038Z,3.38
2022-12-05T17:03:36.627Z,3.70
2022-12-05T17:06:06.742Z,3.47
2022-12-05T17:08:33.676Z,3.65
2022-12-05T17:11:02.055Z,3.50
2022-12-05T17:13:30.597Z,3.90
2022-12-05T17:15:57.302Z,3.75
2022-12-05T17:18:29.550Z,3.80
2022-12-05T17:21:00.860Z,3.97
2022-12-05T17:23:27.587Z,3.73
2022-12-05T17:25:56.630Z,3.65
2022-12-05T17:28:26.797Z,3.45
2022-12-05T17:30:53.707Z,3.92
2022-12-05T17:33:23.599Z,3.72
2022-12-05T17:35:52.129Z,3.80
2022-12-05T17:38:19.883Z,4.43
2022-12-05T17:40:48.459Z,3.67
2022-12-05T17:43:19.903Z,3.90
2022-12-05T17:45:50.022Z,3.70
2022-12-05T17:48:17.053Z,3.50
2022-12-05T17:50:46.964Z,3.67
2022-12-05T17:53:18.763Z,3.80
2022-12-05T17:55:48.633Z,3.33
2022-12-05T17:58:16.641Z,3.42
2022-12-05T18:00:44.679Z,3.70
2022-12-05T18:03:14.661Z,3.85
2022-12-05T18:05:49.441Z,3.40
2022-12-05T18:08:19.241Z,3.55
2022-12-05T18:10:48.445Z,3.88
2022-12-05T18:13:16.330Z,3.53
2022-12-05T18:15:43.818Z,3.83
2022-12-05T18:18:14.520Z,3.60
2022-12-05T18:20:41.257Z,3.45
2022-12-05T18:23:08.047Z,3.42
2022-12-05T18:25:38.322Z,3.75
2022-12-05T18:28:05.788Z,3.47
2022-12-05T18:30:32.637Z,3.47
2022-12-05T18:32:59.509Z,3.45
2022-12-05T18:35:42.059Z,3.35
2022-12-05T18:38:12.286Z,3.38
2022-12-05T18:40:39.205Z,3.53
2022-12-05T18:43:06.182Z,3.53
2022-12-05T18:45:34.263Z,3.60
2022-12-05T18:48:23.416Z,3.42
2022-12-05T18:50:47.830Z,3.53
2022-12-05T18:53:14.524Z,3.35
2022-12-05T18:58:28.101Z,3.22
2022-12-05T19:00:55.916Z,3.35
2022-12-05T19:03:22.572Z,3.40
2022-12-05T19:05:49.281Z,3.10
2022-12-05T19:08:16.254Z,3.10
2022-12-05T19:10:43.107Z,3.55
2022-12-05T19:13:10.936Z,3.20
2022-12-05T19:15:37.603Z,3.40
2022-12-05T19:18:04.536Z,3.00
2022-12-05T19:20:31.564Z,3.30
2022-12-05T19:23:01.094Z,3.58
2022-12-05T19:25:29.771Z,3.40
2022-12-05T19:27:56.955Z,3.30
2022-12-05T19:30:24.055Z,3.50
2022-12-05T19:32:50.874Z,3.53
2022-12-05T19:35:17.963Z,3.55
2022-12-05T19:37:44.756Z,3.90
2022-12-05T19:40:13.158Z,4.07
2022-12-05T19:42:39.804Z,3.53
2022-12-05T19:45:10.424Z,3.42
2022-12-05T19:47:40.338Z,4.10
2022-12-05T19:50:07.445Z,4.25
2022-12-05T19:52:34.112Z,4.13
2022-12-05T19:55:01.028Z,4.20
2022-12-05T19:57:31.214Z,3.80
2022-12-05T19:59:58.716Z,4.55
2022-12-05T20:02:25.791Z,4.90
2022-12-05T20:04:52.533Z,4.30
2022-12-05T20:07:19.840Z,4.30
2022-12-05T20:09:46.711Z,4.10
2022-12-05T20:12:13.307Z,4.25
2022-12-05T20:14:39.984Z,4.22
2022-12-05T20:17:06.736Z,4.53
2022-12-05T20:19:33.392Z,4.50
2022-12-05T20:22:03.930Z,4.57
2022-12-05T20:24:33.962Z,4.60
2022-12-05T20:27:01.654Z,4.93
2022-12-05T20:29:28.362Z,4.60
2022-12-05T20:31:57.950Z,5.20
2022-12-05T20:34:24.646Z,5.33
2022-12-05T20:36:51.201Z,5.30
2022-12-05T20:39:18.495Z,4.90
2022-12-05T20:41:45.451Z,4.50
2022-12-05T20:44:15.408Z,5.20
2022-12-05T20:46:42.580Z,4.88
2022-12-05T20:49:09.886Z,5.47
2022-12-05T20:51:36.509Z,5.53
2022-12-05T20:54:05.365Z,4.93
2022-12-05T20:56:32.910Z,5.03
2022-12-05T20:59:05.375Z,5.60
2022-12-05T21:01:35.199Z,5.30
2022-12-05T21:04:03.274Z,5.30
2022-12-05T21:06:32.747Z,5.63
2022-12-05T21:09:00.825Z,5.53
2022-12-05T21:11:28.837Z,5.53
2022-12-05T21:13:56.943Z,5.53
2022-12-05T21:16:24.245Z,5.03
2022-12-05T21:18:51.955Z,5.20
2022-12-05T21:21:22.008Z,6.28
2022-12-05T21:23:56.116Z,6.90
2022-12-05T21:26:24.133Z,6.30
2022-12-05T21:28:51.683Z,5.25
2022-12-05T21:31:24.117Z,5.82
2022-12-05T21:33:53.837Z,5.60
2022-12-05T21:36:21.799Z,5.78
2022-12-05T21:38:55.429Z,5.80
2022-12-05T21:41:23.856Z,5.70
2022-12-05T21:43:54.351Z,6.53
2022-12-05T21:46:22.264Z,5.97
2022-12-05T21:48:49.776Z,6.40
2022-12-05T21:51:16.656Z,6.13
2022-12-05T21:53:43.626Z,5.60
2022-12-05T21:56:15.789Z,5.93
2022-12-05T21:58:44.705Z,5.50
2022-12-05T22:01:17.700Z,5.80
2022-12-05T22:03:44.919Z,5.78
2022-12-05T22:06:12.870Z,5.75
2022-12-05T22:08:39.531Z,5.72
2022-12-05T22:11:07.012Z,6.30
2022-12-05T22:13:33.902Z,6.05
2022-12-05T22:16:01.420Z,5.80
2022-12-05T22:18:28.490Z,6.32
2022-12-05T22:21:04.305Z,5.57
2022-12-05T22:23:32.767Z,5.95
2022-12-05T22:26:04.202Z,5.97
2022-12-05T22:28:32.370Z,6.53
2022-12-05T22:31:01.399Z,5.80
2022-12-05T22:33:29.043Z,5.60
2022-12-05T22:36:00.420Z,6.00
2022-12-05T22:38:33.169Z,6.28
2022-12-05T22:41:02.270Z,5.90
2022-12-05T22:43:30.541Z,5.70
2022-12-05T22:45:57.578Z,5.65
2022-12-05T22:48:24.759Z,5.35
2022-12-05T22:50:54.339Z,6.28
2022-12-05T22:53:22.920Z,5.85
2022-12-05T22:55:50.764Z,6.20
2022-12-05T22:58:17.706Z,6.15
2022-12-05T23:00:44.989Z,6.05
2022-12-05T23:03:11.848Z,6.18
2022-12-05T23:05:43.110Z,6.10
2022-12-05T23:08:10.676Z,5.45
2022-12-05T23:10:39.275Z,5.70
2022-12-05T23:13:07.351Z,5.40
2022-12-05T23:15:37.354Z,5.75
2022-12-05T23:18:04.870Z,5.95
2022-12-05T23:20:32.434Z,6.15
2022-12-05T23:22:59.016Z,6.30
2022-12-05T23:25:25.630Z,6.65
2022-12-05T23:27:52.203Z,5.95
2022-12-05T23:30:19.054Z,6.63
2022-12-05T23:32:45.659Z,6.47
2022-12-05T23:35:12.332Z,5.88
2022-12-05T23:37:39.690Z,5.90
2022-12-05T23:40:06.990Z,6.15
2022-12-05T23:42:33.772Z,5.82
2022-12-05T23:45:00.618Z,6.28
2022-12-05T23:47:27.280Z,5.85
2022-12-05T23:49:53.905Z,6.30
2022-12-05T23:52:20.555Z,6.25
2022-12-05T23:54:47.263Z,6.65
2022-12-05T23:57:17.576Z,6.38
2022-12-05T23:59:45.445Z,6.28
